Time;durP1;ratioP1;P1;durP2;ratioP2;P2;SDS_P1;SDS_P2;PMS_P1;PMS_P2;Temp;Humidity;BMP_temperature;BMP_pressure;BME280_temperature;BME280_humidity;BME280_pressure;Samples;Min_cycle;Max_cycle;Signal;HPM_P1;HPM_P2
2023/08/29 00:00:04;;;;;;;3.40;3.10;;;16.70;99.90;;;;;;5059798;28;20313;-71
2023/08/29 00:02:32;;;;;;;3.50;3.13;;;16.70;99.90;;;;;;5059894;28;20172;-74
2023/08/29 00:04:58;;;;;;;3.47;3.17;;;16.70;99.90;;;;;;5077347;28;20158;-74
2023/08/29 00:07:24;;;;;;;3.47;3.17;;;16.60;99.90;;;;;;5059086;28;20192;-74
2023/08/29 00:09:52;;;;;;;3.58;3.13;;;16.60;99.90;;;;;;5063496;28;20172;-73
2023/08/29 00:12:20;;;;;;;3.90;3.55;;;16.50;99.90;;;;;;5059857;28;20187;-73
2023/08/29 00:14:46;;;;;;;5.80;3.40;;;16.50;99.90;;;;;;5058712;28;20440;-75
2023/08/29 00:17:12;;;;;;;3.78;3.40;;;16.50;99.90;;;;;;5059233;28;20240;-74
2023/08/29 00:19:37;;;;;;;5.72;3.38;;;16.40;99.90;;;;;;5059057;28;20176;-74
2023/08/29 00:22:05;;;;;;;3.30;3.00;;;16.50;99.90;;;;;;5047449;28;20236;-74
2023/08/29 00:24:31;;;;;;;4.07;3.67;;;16.40;99.90;;;;;;5046003;28;20177;-73
2023/08/29 00:26:56;;;;;;;4.07;3.67;;;16.40;99.90;;;;;;5059128;28;20191;-75
2023/08/29 00:29:22;;;;;;;4.65;3.40;;;16.30;99.90;;;;;;5058970;28;20277;-76
2023/08/29 00:31:48;;;;;;;3.35;3.05;;;16.30;99.90;;;;;;5062375;28;20256;-75
2023/08/29 00:34:13;;;;;;;4.70;3.60;;;16.30;99.90;;;;;;5059601;28;20184;-73
2023/08/29 00:36:41;;;;;;;4.18;3.78;;;16.20;99.90;;;;;;5054946;28;20270;-74
2023/08/29 00:39:09;;;;;;;4.55;3.70;;;16.20;99.90;;;;;;5055534;28;20184;-75
2023/08/29 00:41:35;;;;;;;4.45;3.40;;;16.20;99.90;;;;;;5059644;28;20234;-65
2023/08/29 00:44:00;;;;;;;4.18;3.78;;;16.20;99.90;;;;;;5057578;28;20188;-64
2023/08/29 00:46:27;;;;;;;4.85;3.78;;;16.20;99.90;;;;;;5071492;28;20181;-64
2023/08/29 00:48:55;;;;;;;3.90;3.35;;;16.20;99.90;;;;;;5058268;28;20241;-65
2023/08/29 00:51:23;;;;;;;4.00;3.53;;;16.20;99.90;;;;;;5067415;28;20195;-64
2023/08/29 00:53:48;;;;;;;4.95;3.58;;;16.20;99.90;;;;;;5058401;28;20242;-64
2023/08/29 00:56:17;;;;;;;4.28;3.88;;;16.20;99.90;;;;;;5058426;28;20228;-65
2023/08/29 00:58:44;;;;;;;5.88;3.88;;;16.20;99.90;;;;;;5071231;28;20251;-65
2023/08/29 01:01:12;;;;;;;4.68;4.03;;;16.20;99.90;;;;;;5057176;28;20221;-64
2023/08/29 01:03:39;;;;;;;4.22;3.83;;;16.10;99.90;;;;;;5054860;28;20194;-65
2023/08/29 01:06:05;;;;;;;4.28;3.85;;;16.10;99.90;;;;;;5058102;28;20206;-64
2023/08/29 01:08:31;;;;;;;4.20;3.83;;;16.10;99.90;;;;;;5054874;28;20198;-65
2023/08/29 01:11:29;;;;;;;5.22;3.78;;;16.10;99.90;;;;;;5055957;28;20278;-64
2023/08/29 01:14:05;;;;;;;4.40;4.00;;;16.10;99.90;;;;;;5013882;28;20235;-65
2023/08/29 01:16:38;;;;;;;5.28;4.50;;;16.10;99.90;;;;;;5057760;28;20192;-66
2023/08/29 01:19:12;;;;;;;4.90;4.40;;;16.10;99.90;;;;;;5057177;28;20202;-65
2023/08/29 01:21:52;;;;;;;4.53;4.13;;;16.10;99.90;;;;;;5057556;28;20214;-65
2023/08/29 01:24:26;;;;;;;4.20;3.80;;;16.10;99.90;;;;;;5057305;28;20402;-65
2023/08/29 01:26:53;;;;;;;4.35;3.88;;;16.10;99.90;;;;;;5054838;28;20179;-64
2023/08/29 01:29:20;;;;;;;5.45;4.47;;;16.10;99.90;;;;;;5055740;28;20200;-65
2023/08/29 01:31:46;;;;;;;5.28;4.78;;;16.20;99.90;;;;;;5054550;28;20204;-65
2023/08/29 01:34:12;;;;;;;5.50;4.43;;;16.20;99.90;;;;;;5061336;28;20173;-65
2023/08/29 01:36:44;;;;;;;6.97;4.57;;;16.20;99.90;;;;;;5065852;28;20207;-63
2023/08/29 01:39:13;;;;;;;5.07;4.57;;;16.20;99.90;;;;;;5064386;28;20188;-64
2023/08/29 01:41:40;;;;;;;5.75;4.32;;;16.20;99.90;;;;;;5061879;28;20238;-64
2023/08/29 01:44:06;;;;;;;4.82;4.30;;;16.20;99.90;;;;;;5064575;28;20180;-65
2023/08/29 01:46:34;;;;;;;5.32;4.82;;;16.20;99.90;;;;;;5053223;28;20198;-64
2023/08/29 01:49:03;;;;;;;5.15;4.13;;;16.20;99.90;;;;;;5063463;28;20192;-65
2023/08/29 01:51:33;;;;;;;4.60;4.03;;;16.20;99.90;;;;;;5058248;28;20180;-65
2023/08/29 01:53:59;;;;;;;4.97;4.47;;;16.20;99.90;;;;;;5059803;28;20456;-64
2023/08/29 01:56:28;;;;;;;4.70;4.30;;;16.20;99.90;;;;;;5056417;28;20200;-65
2023/08/29 01:58:54;;;;;;;5.15;4.35;;;16.20;99.90;;;;;;5047577;28;20169;-65
2023/08/29 02:01:20;;;;;;;4.78;4.20;;;16.20;99.90;;;;;;5057556;28;20187;-64
2023/08/29 02:03:46;;;;;;;4.43;4.00;;;16.20;99.90;;;;;;5057183;28;20161;-65
2023/08/29 02:06:13;;;;;;;4.50;4.10;;;16.30;99.90;;;;;;5057705;28;20208;-65
2023/08/29 02:08:39;;;;;;;4.68;4.22;;;16.30;99.90;;;;;;5053795;28;20208;-66
2023/08/29 02:11:07;;;;;;;5.18;4.43;;;16.30;99.90;;;;;;5054277;28;20177;-65
2023/08/29 02:13:38;;;;;;;5.20;4.68;;;16.30;99.90;;;;;;5056408;28;20534;-64
2023/08/29 02:16:04;;;;;;;4.82;4.32;;;16.30;99.90;;;;;;5069220;28;20203;-65
2023/08/29 02:18:29;;;;;;;4.55;4.15;;;16.30;99.90;;;;;;5057084;28;20165;-65
2023/08/29 02:20:55;;;;;;;4.93;4.32;;;16.30;99.90;;;;;;5057748;28;20200;-64
2023/08/29 02:23:21;;;;;;;4.28;3.88;;;16.30;99.90;;;;;;5057131;28;20172;-65
2023/08/29 02:25:59;;;;;;;4.97;4.32;;;16.30;99.90;;;;;;5057668;28;20177;-64
2023/08/29 02:28:26;;;;;;;4.78;4.25;;;16.30;99.90;;;;;;5057168;28;20249;-65
2023/08/29 02:30:52;;;;;;;4.35;3.95;;;16.30;99.90;;;;;;5052720;28;20177;-65
2023/08/29 02:33:18;;;;;;;6.38;4.57;;;16.30;99.90;;;;;;5059549;28;20207;-64
2023/08/29 02:35:46;;;;;;;5.28;4.75;;;16.30;99.90;;;;;;5054231;28;20193;-64
2023/08/29 02:38:14;;;;;;;4.82;4.30;;;16.30;99.90;;;;;;5057243;28;20187;-65
2023/08/29 02:40:42;;;;;;;6.15;5.10;;;16.30;99.90;;;;;;5055554;28;20250;-66
2023/08/29 02:43:08;;;;;;;5.15;4.63;;;16.30;99.90;;;;;;5060816;28;20180;-66
2023/08/29 02:45:33;;;;;;;4.38;3.97;;;16.30;99.90;;;;;;5056447;28;20208;-64
2023/08/29 02:47:59;;;;;;;4.70;4.22;;;16.30;99.90;;;;;;5064836;28;20212;-64
2023/08/29 02:50:27;;;;;;;4.90;4.32;;;16.30;99.90;;;;;;5065412;28;20203;-64
2023/08/29 02:52:52;;;;;;;6.65;4.35;;;16.30;99.90;;;;;;5060828;28;20177;-65
2023/08/29 02:55:18;;;;;;;4.90;4.18;;;16.40;99.90;;;;;;5063540;28;20193;-64
2023/08/29 02:57:46;;;;;;;4.63;3.90;;;16.40;99.90;;;;;;5060487;28;20249;-64
2023/08/29 03:00:14;;;;;;;4.53;4.10;;;16.40;99.90;;;;;;5061552;28;20184;-64
2023/08/29 03:02:42;;;;;;;4.53;4.00;;;16.40;99.90;;;;;;5055525;28;20271;-64
2023/08/29 03:05:08;;;;;;;4.68;4.28;;;16.40;99.90;;;;;;5067174;28;20177;-64
2023/08/29 03:07:35;;;;;;;4.57;4.18;;;16.40;99.90;;;;;;5063228;28;20215;-66
2023/08/29 03:10:03;;;;;;;4.53;4.10;;;16.40;99.90;;;;;;5070732;28;20191;-64
2023/08/29 03:12:29;;;;;;;4.72;3.90;;;16.40;99.90;;;;;;5044997;28;20180;-66
2023/08/29 03:14:54;;;;;;;4.68;4.25;;;16.40;99.90;;;;;;5051674;28;20210;-66
2023/08/29 03:17:24;;;;;;;3.95;3.55;;;16.40;99.90;;;;;;5059696;28;20201;-65
2023/08/29 03:19:52;;;;;;;5.07;4.13;;;16.40;99.90;;;;;;5059673;28;20173;-65
2023/08/29 03:22:20;;;;;;;4.13;3.72;;;16.40;99.90;;;;;;5062969;28;20220;-65
2023/08/29 03:24:46;;;;;;;30.92;23.77;;;16.40;99.90;;;;;;5046843;28;20173;-64
2023/08/29 03:27:12;;;;;;;12.25;10.43;;;16.40;99.90;;;;;;5077118;28;20195;-64
2023/08/29 03:29:38;;;;;;;10.32;8.55;;;16.40;99.90;;;;;;5060248;28;20173;-64
2023/08/29 03:32:03;;;;;;;8.18;7.05;;;16.40;99.90;;;;;;5060381;28;20267;-65
2023/08/29 03:34:32;;;;;;;10.38;8.65;;;16.40;99.90;;;;;;5059814;28;20172;-63
2023/08/29 03:37:04;;;;;;;7.97;6.93;;;16.40;99.90;;;;;;5059634;28;20215;-65
2023/08/29 03:39:30;;;;;;;7.40;6.63;;;16.30;99.90;;;;;;5064443;28;20318;-64
2023/08/29 03:41:56;;;;;;;6.50;5.90;;;16.40;99.90;;;;;;5059736;28;20224;-64
2023/08/29 03:44:23;;;;;;;6.40;5.80;;;16.40;99.90;;;;;;5054047;28;20375;-65
2023/08/29 03:46:49;;;;;;;7.10;5.63;;;16.40;99.90;;;;;;5068268;28;20165;-65
2023/08/29 03:49:17;;;;;;;6.28;5.65;;;16.40;99.90;;;;;;5061990;28;20227;-65
2023/08/29 03:51:43;;;;;;;6.60;5.32;;;16.40;99.90;;;;;;5054322;28;20218;-64
2023/08/29 03:54:10;;;;;;;5.78;5.20;;;16.40;99.90;;;;;;5059171;28;20214;-64
2023/08/29 03:56:36;;;;;;;6.63;5.50;;;16.40;99.90;;;;;;5060565;28;20247;-64
2023/08/29 03:59:04;;;;;;;6.25;5.65;;;16.40;99.90;;;;;;5060098;28;20176;-64
2023/08/29 04:01:29;;;;;;;6.85;6.07;;;16.30;99.90;;;;;;5059854;28;20169;-65
2023/08/29 04:03:55;;;;;;;7.68;6.68;;;16.30;99.90;;;;;;5059972;28;20193;-65
2023/08/29 04:06:21;;;;;;;6.45;5.85;;;16.30;99.90;;;;;;5059638;28;20187;-64
2023/08/29 04:08:46;;;;;;;6.90;6.20;;;16.30;99.90;;;;;;5059482;28;20173;-64
2023/08/29 04:11:17;;;;;;;6.47;5.68;;;16.40;99.90;;;;;;5056743;28;20232;-64
2023/08/29 04:13:42;;;;;;;6.57;5.88;;;16.30;99.90;;;;;;5059715;28;20240;-64
2023/08/29 04:16:10;;;;;;;6.78;5.72;;;16.30;99.90;;;;;;5059620;28;20287;-64
2023/08/29 04:18:38;;;;;;;6.20;5.60;;;16.30;99.90;;;;;;5053980;28;20180;-64
2023/08/29 04:21:04;;;;;;;6.85;5.80;;;16.20;99.90;;;;;;5059322;28;20168;-64
2023/08/29 04:23:29;;;;;;;7.88;7.07;;;16.20;99.90;;;;;;5059354;28;20169;-64
2023/08/29 04:25:59;;;;;;;9.68;7.32;;;16.20;99.90;;;;;;5059103;28;20232;-65
2023/08/29 04:28:30;;;;;;;6.80;6.10;;;16.20;99.90;;;;;;5055662;28;20287;-65
2023/08/29 04:31:06;;;;;;;9.55;5.80;;;16.10;99.90;;;;;;5054041;28;20216;-64
2023/08/29 04:33:33;;;;;;;7.30;6.60;;;16.10;99.90;;;;;;5052341;28;20187;-64
2023/08/29 04:35:59;;;;;;;6.97;6.28;;;16.10;99.90;;;;;;5039249;28;20284;-65
2023/08/29 04:38:24;;;;;;;7.85;6.30;;;16.00;99.90;;;;;;5047079;28;20489;-64
2023/08/29 04:40:53;;;;;;;7.57;6.60;;;16.10;99.90;;;;;;5058313;28;20255;-64
2023/08/29 04:43:19;;;;;;;7.47;6.68;;;16.00;99.90;;;;;;5074076;28;20238;-64
2023/08/29 04:45:47;;;;;;;6.90;6.20;;;16.00;99.90;;;;;;5060999;28;20204;-65
2023/08/29 04:48:14;;;;;;;7.55;6.32;;;16.00;99.90;;;;;;5070433;28;20185;-65
2023/08/29 04:50:45;;;;;;;7.20;6.13;;;16.00;99.90;;;;;;5067468;28;20177;-64
2023/08/29 04:53:11;;;;;;;8.07;6.72;;;16.00;99.90;;;;;;5065588;28;20227;-65
2023/08/29 04:55:39;;;;;;;8.65;6.72;;;16.00;99.90;;;;;;5058634;28;20177;-65
2023/08/29 04:58:05;;;;;;;8.93;7.28;;;16.00;99.90;;;;;;5058648;28;20176;-64
2023/08/29 05:00:33;;;;;;;9.40;7.97;;;16.00;99.90;;;;;;5054931;28;20204;-64
2023/08/29 05:02:58;;;;;;;8.48;7.30;;;16.00;99.90;;;;;;5056324;28;20180;-65
2023/08/29 05:05:24;;;;;;;8.00;6.95;;;16.00;99.90;;;;;;5057745;28;20173;-65
2023/08/29 05:07:50;;;;;;;7.40;6.70;;;16.00;99.90;;;;;;5056928;28;20184;-65
2023/08/29 05:10:15;;;;;;;7.57;6.80;;;16.00;99.90;;;;;;5058925;28;20168;-66
2023/08/29 05:12:43;;;;;;;7.47;6.68;;;16.00;99.90;;;;;;5058271;28;20197;-65
2023/08/29 05:15:09;;;;;;;7.95;6.50;;;16.00;99.90;;;;;;5071013;28;20211;-65
2023/08/29 05:17:35;;;;;;;7.90;6.68;;;16.00;99.90;;;;;;5041084;28;20221;-64
2023/08/29 05:20:03;;;;;;;7.88;6.38;;;16.00;99.90;;;;;;5047183;28;20275;-65
2023/08/29 05:22:29;;;;;;;7.40;6.70;;;16.00;99.90;;;;;;5057880;28;20172;-65
2023/08/29 05:24:54;;;;;;;10.73;6.90;;;16.00;99.90;;;;;;5058240;28;20195;-65
2023/08/29 05:27:22;;;;;;;8.02;6.53;;;16.00;99.90;;;;;;5058285;28;20197;-65
2023/08/29 05:29:48;;;;;;;7.82;6.70;;;16.00;99.90;;;;;;5062645;28;20169;-65
2023/08/29 05:32:16;;;;;;;8.50;6.53;;;16.00;99.90;;;;;;5045667;28;20245;-65
2023/08/29 05:34:42;;;;;;;7.97;6.43;;;16.00;99.90;;;;;;5058346;28;20200;-65
2023/08/29 05:37:07;;;;;;;6.97;6.28;;;16.10;99.90;;;;;;5044799;28;20236;-65
2023/08/29 05:39:33;;;;;;;7.25;6.20;;;16.10;99.90;;;;;;5054885;28;20169;-66
2023/08/29 05:42:00;;;;;;;6.70;6.03;;;16.10;99.90;;;;;;5039083;28;20158;-65
2023/08/29 05:44:26;;;;;;;8.10;6.38;;;16.10;99.90;;;;;;5057530;28;20172;-65
2023/08/29 05:46:52;;;;;;;6.78;5.95;;;16.20;99.90;;;;;;5057936;28;20215;-65
2023/08/29 05:49:17;;;;;;;9.07;6.57;;;16.10;99.90;;;;;;5057657;28;20212;-64
2023/08/29 05:51:47;;;;;;;7.22;6.53;;;16.20;99.90;;;;;;5056625;28;20229;-66
2023/08/29 05:54:14;;;;;;;7.68;6.18;;;16.20;99.90;;;;;;5057897;28;20176;-66
2023/08/29 05:56:39;;;;;;;7.97;6.00;;;16.20;99.90;;;;;;5057223;28;20192;-65
2023/08/29 05:59:08;;;;;;;7.18;6.35;;;16.20;99.90;;;;;;5057249;28;20192;-67
2023/08/29 06:01:35;;;;;;;8.52;6.60;;;16.20;99.90;;;;;;5056786;28;20173;-66
2023/08/29 06:04:04;;;;;;;8.38;6.60;;;16.30;99.90;;;;;;5056890;28;20177;-66
2023/08/29 06:06:32;;;;;;;8.48;6.93;;;16.30;99.90;;;;;;5057545;28;20168;-64
2023/08/29 06:08:59;;;;;;;9.10;6.97;;;16.30;99.90;;;;;;5056741;28;20173;-66
2023/08/29 06:11:28;;;;;;;7.28;6.40;;;16.30;99.90;;;;;;5057382;28;20188;-66
2023/08/29 06:13:54;;;;;;;7.28;6.57;;;16.40;99.90;;;;;;5057664;28;20269;-65
2023/08/29 06:16:22;;;;;;;8.80;6.70;;;16.40;99.90;;;;;;5059920;28;20256;-65
2023/08/29 06:18:50;;;;;;;7.78;6.65;;;16.40;99.90;;;;;;5061444;28;20185;-65
2023/08/29 06:21:20;;;;;;;7.55;6.75;;;16.50;99.90;;;;;;5074997;28;20185;-65
2023/08/29 06:23:46;;;;;;;8.88;7.45;;;16.50;99.90;;;;;;5061157;28;20175;-65
2023/08/29 06:26:11;;;;;;;7.97;7.15;;;16.50;99.90;;;;;;5061705;28;20180;-65
2023/08/29 06:28:37;;;;;;;7.50;6.80;;;16.60;99.90;;;;;;5061815;28;20535;-66
2023/08/29 06:31:04;;;;;;;8.02;7.05;;;16.60;99.90;;;;;;5061469;28;20180;-66
2023/08/29 06:33:30;;;;;;;7.55;6.80;;;16.60;99.90;;;;;;5061237;28;20173;-66
2023/08/29 06:35:56;;;;;;;7.78;6.97;;;16.70;99.90;;;;;;5061029;28;20196;-65
2023/08/29 06:38:22;;;;;;;9.00;6.90;;;16.70;99.90;;;;;;5061522;28;20187;-65
2023/08/29 06:40:57;;;;;;;7.45;6.65;;;16.80;99.90;;;;;;5060943;28;20209;-65
2023/08/29 06:43:23;;;;;;;8.48;7.30;;;16.90;99.90;;;;;;5041645;28;20181;-65
2023/08/29 06:45:49;;;;;;;7.53;6.80;;;16.90;99.90;;;;;;5061036;28;20181;-66
2023/08/29 06:48:14;;;;;;;8.50;7.50;;;17.00;99.90;;;;;;5059891;28;20261;-66
2023/08/29 06:50:43;;;;;;;8.15;7.05;;;17.00;99.90;;;;;;5060899;28;20212;-66
2023/08/29 06:53:08;;;;;;;8.55;7.32;;;17.10;99.90;;;;;;5060735;28;20234;-65
2023/08/29 06:55:34;;;;;;;7.68;6.88;;;17.10;99.90;;;;;;5078296;28;20222;-64
2023/08/29 06:58:02;;;;;;;7.88;6.97;;;17.20;99.90;;;;;;5060474;28;20267;-65
2023/08/29 07:00:28;;;;;;;8.02;7.22;;;17.20;99.90;;;;;;5060692;28;20217;-66
2023/08/29 07:02:54;;;;;;;8.75;7.38;;;17.30;99.90;;;;;;5060456;28;20173;-66
2023/08/29 07:05:20;;;;;;;9.32;7.53;;;17.30;99.90;;;;;;5060207;28;20196;-66
2023/08/29 07:07:45;;;;;;;9.25;7.18;;;17.30;99.90;;;;;;5060498;28;20179;-65
2023/08/29 07:10:11;;;;;;;9.38;7.43;;;17.40;99.90;;;;;;5060757;28;20177;-66
2023/08/29 07:12:42;;;;;;;8.05;7.25;;;17.40;99.90;;;;;;5061052;28;20188;-66
2023/08/29 07:15:08;;;;;;;9.30;7.57;;;17.40;99.90;;;;;;5060630;28;20192;-67
2023/08/29 07:17:34;;;;;;;8.68;7.32;;;17.50;99.90;;;;;;5061041;28;20211;-65
2023/08/29 07:20:04;;;;;;;9.27;8.32;;;17.50;99.90;;;;;;5046826;28;20218;-66
2023/08/29 07:22:29;;;;;;;9.07;8.18;;;17.60;99.90;;;;;;5056916;28;20192;-65
2023/08/29 07:24:57;;;;;;;10.43;8.38;;;17.60;99.90;;;;;;5057462;28;20260;-65
2023/08/29 07:27:25;;;;;;;10.38;8.55;;;17.60;99.90;;;;;;5059178;28;20188;-66
2023/08/29 07:29:51;;;;;;;9.07;7.30;;;17.70;99.90;;;;;;5060535;28;20196;-65
2023/08/29 07:32:19;;;;;;;10.00;8.20;;;17.70;99.90;;;;;;5060401;28;20176;-65
2023/08/29 07:34:47;;;;;;;9.70;8.63;;;17.80;99.90;;;;;;5060826;28;20188;-66
2023/08/29 07:37:12;;;;;;;9.73;8.52;;;17.80;99.90;;;;;;5059637;28;20204;-65
2023/08/29 07:39:40;;;;;;;11.32;9.13;;;17.90;99.90;;;;;;5060208;28;20177;-65
2023/08/29 07:42:06;;;;;;;11.10;9.13;;;17.90;99.90;;;;;;5059304;28;20197;-65
2023/08/29 07:44:32;;;;;;;12.13;9.35;;;17.90;99.90;;;;;;5060911;28;20175;-65
2023/08/29 07:46:58;;;;;;;10.43;9.30;;;17.90;99.90;;;;;;5061158;28;20193;-65
2023/08/29 07:49:23;;;;;;;12.85;9.77;;;17.90;99.90;;;;;;5050786;28;20246;-66
2023/08/29 07:51:52;;;;;;;11.32;8.93;;;17.90;99.90;;;;;;5056054;28;20317;-66
2023/08/29 07:54:18;;;;;;;10.35;8.38;;;18.00;99.90;;;;;;5060385;28;20258;-66
2023/08/29 07:56:46;;;;;;;11.45;9.95;;;18.00;99.90;;;;;;5062072;28;20454;-65
2023/08/29 07:59:11;;;;;;;10.80;9.48;;;18.00;99.90;;;;;;5060543;28;20176;-65
2023/08/29 08:01:37;;;;;;;12.40;10.10;;;18.10;99.90;;;;;;5061373;28;20168;-65
2023/08/29 08:04:06;;;;;;;10.40;9.30;;;18.10;99.90;;;;;;5056338;28;20200;-65
2023/08/29 08:06:36;;;;;;;12.90;11.20;;;18.10;99.90;;;;;;5060046;28;20200;-66
2023/08/29 08:09:04;;;;;;;13.68;11.75;;;18.20;99.90;;;;;;5059070;28;20180;-66
2023/08/29 08:11:32;;;;;;;17.25;13.60;;;18.20;99.90;;;;;;5059083;28;20192;-66
2023/08/29 08:13:58;;;;;;;16.40;14.48;;;18.30;99.90;;;;;;5059105;28;20176;-65
2023/08/29 08:16:23;;;;;;;17.73;14.82;;;18.30;99.90;;;;;;5059452;28;20216;-66
2023/08/29 08:18:52;;;;;;;17.40;15.60;;;18.40;99.90;;;;;;5057717;28;20194;-66
2023/08/29 08:21:18;;;;;;;18.52;16.25;;;18.40;99.90;;;;;;5039376;28;20173;-66
2023/08/29 08:23:46;;;;;;;17.45;15.32;;;18.40;99.90;;;;;;5052185;28;20266;-66
2023/08/29 08:26:12;;;;;;;18.15;15.32;;;18.50;99.90;;;;;;5059795;28;20176;-66
2023/08/29 08:28:40;;;;;;;20.60;17.08;;;18.50;99.90;;;;;;5058717;28;20203;-65
2023/08/29 08:31:10;;;;;;;19.60;15.63;;;18.60;99.90;;;;;;5059817;28;20195;-65
2023/08/29 08:33:36;;;;;;;22.95;17.95;;;18.60;99.90;;;;;;5061176;28;20256;-66
2023/08/29 08:36:02;;;;;;;25.65;20.38;;;18.70;99.90;;;;;;5061081;28;20236;-65
2023/08/29 08:38:27;;;;;;;25.55;20.75;;;18.70;99.90;;;;;;5057735;28;20199;-65
2023/08/29 08:40:59;;;;;;;21.48;18.33;;;18.70;99.90;;;;;;5060239;28;20196;-65
2023/08/29 08:43:25;;;;;;;20.67;18.23;;;18.80;99.90;;;;;;5058658;28;20164;-67
2023/08/29 08:45:54;;;;;;;27.05;20.58;;;18.80;99.90;;;;;;5059109;28;20233;-66
2023/08/29 08:48:20;;;;;;;29.77;23.10;;;18.80;99.90;;;;;;5078589;28;20364;-66
2023/08/29 08:50:47;;;;;;;25.17;20.40;;;18.80;99.90;;;;;;5062214;28;20217;-73
2023/08/29 08:53:14;;;;;;;27.75;21.75;;;18.80;99.90;;;;;;5059391;28;20185;-74
2023/08/29 08:55:45;;;;;;;25.33;20.70;;;18.70;99.90;;;;;;5058837;28;20165;-74
2023/08/29 08:58:10;;;;;;;25.75;20.33;;;18.80;99.90;;;;;;5059115;28;20161;-73
2023/08/29 09:00:38;;;;;;;28.60;22.33;;;18.80;99.90;;;;;;5058267;28;20257;-73
2023/08/29 09:03:06;;;;;;;25.98;20.73;;;18.80;99.90;;;;;;5058705;28;20259;-73
2023/08/29 09:05:32;;;;;;;26.15;20.95;;;18.80;99.90;;;;;;5058762;28;20184;-75
2023/08/29 09:07:59;;;;;;;27.88;21.38;;;18.90;99.90;;;;;;5058432;28;20168;-73
2023/08/29 09:10:33;;;;;;;26.05;20.70;;;18.90;99.90;;;;;;5058428;28;20207;-74
2023/08/29 09:12:58;;;;;;;26.42;21.00;;;19.00;99.90;;;;;;5058085;28;20226;-74
2023/08/29 09:15:28;;;;;;;24.00;20.23;;;19.00;99.90;;;;;;5076152;28;20169;-72
2023/08/29 09:17:58;;;;;;;27.27;22.08;;;19.10;99.90;;;;;;5057868;28;20287;-71
2023/08/29 09:20:29;;;;;;;24.10;19.90;;;19.10;99.90;;;;;;5057764;28;20183;-74
2023/08/29 09:22:57;;;;;;;23.23;19.00;;;19.20;99.90;;;;;;5058340;28;20234;-74
2023/08/29 09:25:26;;;;;;;25.10;20.08;;;19.30;99.90;;;;;;5075317;28;20193;-74
2023/08/29 09:27:53;;;;;;;28.58;21.83;;;19.30;99.90;;;;;;5058007;28;20179;-75
2023/08/29 09:30:19;;;;;;;24.25;20.00;;;19.40;99.90;;;;;;5058442;28;20200;-72
2023/08/29 09:32:46;;;;;;;25.08;20.38;;;19.40;99.90;;;;;;5058035;28;20176;-75
2023/08/29 09:35:18;;;;;;;23.65;19.42;;;19.50;99.90;;;;;;5058145;28;20200;-72
2023/08/29 09:37:52;;;;;;;27.65;18.55;;;19.60;99.90;;;;;;5057351;28;20204;-74
2023/08/29 09:40:18;;;;;;;25.33;19.77;;;19.60;99.90;;;;;;5058304;28;20177;-73
2023/08/29 09:42:59;;;;;;;23.45;19.67;;;19.70;99.90;;;;;;5054289;28;20196;-75
2023/08/29 09:45:28;;;;;;;23.23;19.70;;;19.70;99.90;;;;;;5038576;28;20165;-76
2023/08/29 09:48:05;;;;;;;24.50;21.00;;;19.80;99.90;;;;;;5054005;28;20227;-74
2023/08/29 09:50:32;;;;;;;23.85;19.52;;;19.90;99.90;;;;;;5042143;28;20237;-74
2023/08/29 09:53:02;;;;;;;22.27;19.27;;;19.90;99.90;;;;;;5054563;28;20175;-75
2023/08/29 09:55:35;;;;;;;21.73;19.02;;;20.00;99.90;;;;;;5057877;28;20204;-75
2023/08/29 09:58:04;;;;;;;22.88;18.10;;;20.10;99.90;;;;;;5057817;28;20177;-75
2023/08/29 10:00:34;;;;;;;21.67;18.85;;;20.20;99.90;;;;;;5057651;28;20279;-75
2023/08/29 10:03:04;;;;;;;21.33;18.83;;;20.30;99.90;;;;;;5058056;28;20358;-75
2023/08/29 10:05:34;;;;;;;22.13;18.65;;;20.40;99.90;;;;;;5057070;28;20176;-70
2023/08/29 10:08:11;;;;;;;25.65;21.65;;;20.50;99.90;;;;;;5075383;28;20172;-70
2023/08/29 10:10:41;;;;;;;25.45;21.60;;;20.60;99.90;;;;;;5057360;28;20188;-73
2023/08/29 10:13:09;;;;;;;22.50;20.08;;;20.60;99.90;;;;;;5057578;28;20250;-75
2023/08/29 10:15:38;;;;;;;21.85;19.48;;;20.70;99.90;;;;;;5047531;28;20186;-73
2023/08/29 10:18:07;;;;;;;28.02;22.63;;;20.70;99.90;;;;;;5075308;28;20168;-75
2023/08/29 10:20:35;;;;;;;24.02;20.17;;;20.70;99.90;;;;;;5054253;28;20201;-75
2023/08/29 10:23:02;;;;;;;24.27;20.02;;;20.70;99.90;;;;;;5066106;28;20260;-74
2023/08/29 10:25:28;;;;;;;25.70;20.63;;;20.70;99.90;;;;;;5057686;28;20192;-75
2023/08/29 10:27:54;;;;;;;24.48;20.50;;;20.80;99.90;;;;;;5057155;28;20173;-75
2023/08/29 10:30:23;;;;;;;22.63;19.75;;;20.90;99.90;;;;;;5068532;28;20221;-74
2023/08/29 10:32:49;;;;;;;21.70;19.05;;;21.00;99.90;;;;;;5057284;28;20191;-74
2023/08/29 10:35:23;;;;;;;21.02;18.77;;;21.00;99.90;;;;;;5057150;28;20179;-74
2023/08/29 10:37:56;;;;;;;20.85;17.95;;;21.10;99.90;;;;;;5057303;28;20299;-75
2023/08/29 10:40:22;;;;;;;18.55;16.48;;;21.20;99.90;;;;;;5051909;28;20161;-74
2023/08/29 10:42:53;;;;;;;18.92;16.77;;;21.20;99.90;;;;;;5048965;28;20200;-75
2023/08/29 10:45:23;;;;;;;20.15;17.33;;;21.30;99.90;;;;;;5057307;28;20168;-75
2023/08/29 10:47:52;;;;;;;20.25;16.33;;;21.40;99.90;;;;;;5054091;28;20260;-76
2023/08/29 10:50:23;;;;;;;16.90;15.10;;;21.40;99.90;;;;;;5042603;28;20295;-77
2023/08/29 10:52:56;;;;;;;16.80;14.35;;;21.40;99.90;;;;;;5057562;28;20176;-76
2023/08/29 10:55:37;;;;;;;14.32;12.82;;;21.50;99.90;;;;;;5056119;28;20215;-75
2023/08/29 10:58:30;;;;;;;14.05;12.32;;;21.50;99.90;;;;;;5055136;28;20171;-74
2023/08/29 11:01:00;;;;;;;13.40;11.50;;;21.60;99.90;;;;;;5049694;28;20354;-76
2023/08/29 11:03:49;;;;;;;13.00;11.60;;;21.60;99.90;;;;;;5059628;28;20200;-75
2023/08/29 11:06:21;;;;;;;11.20;10.07;;;21.70;99.90;;;;;;5061026;28;20181;-73
2023/08/29 11:08:49;;;;;;;11.75;10.10;;;21.80;99.90;;;;;;5060850;28;20275;-75
2023/08/29 11:11:24;;;;;;;10.25;9.18;;;21.80;99.90;;;;;;5060805;28;20180;-75
2023/08/29 11:13:58;;;;;;;10.73;8.38;;;21.90;99.90;;;;;;5061090;28;20195;-75
2023/08/29 11:16:24;;;;;;;11.55;8.82;;;22.00;99.90;;;;;;5054354;28;20212;-74
2023/08/29 11:19:06;;;;;;;8.50;7.40;;;22.00;99.90;;;;;;5040958;28;20169;-74
2023/08/29 11:21:32;;;;;;;8.30;6.97;;;22.10;99.90;;;;;;5055010;28;20188;-75
2023/08/29 11:23:59;;;;;;;9.48;7.47;;;22.20;99.90;;;;;;5040737;28;20177;-74
2023/08/29 11:26:25;;;;;;;9.52;8.52;;;22.30;99.90;;;;;;5043991;28;20200;-74
2023/08/29 11:28:51;;;;;;;9.38;7.43;;;22.40;99.90;;;;;;5060352;28;20172;-72
2023/08/29 11:31:20;;;;;;;8.23;7.15;;;22.50;99.90;;;;;;5060303;28;20216;-75
2023/08/29 11:33:46;;;;;;;7.72;6.57;;;22.50;99.90;;;;;;5058207;28;20165;-76
2023/08/29 11:36:15;;;;;;;5.30;4.80;;;22.60;99.90;;;;;;5040434;28;20203;-75
2023/08/29 11:38:43;;;;;;;5.65;5.05;;;22.70;99.90;;;;;;5040474;28;20169;-74
2023/08/29 11:41:10;;;;;;;7.88;6.70;;;22.80;99.90;;;;;;5040624;28;20169;-72
2023/08/29 11:43:36;;;;;;;6.88;6.18;;;22.90;99.90;;;;;;5040313;28;20395;-76
2023/08/29 11:46:03;;;;;;;12.23;7.88;;;23.00;99.90;;;;;;5058429;28;20176;-73
2023/08/29 11:48:33;;;;;;;8.48;7.68;;;23.10;99.90;;;;;;5060027;28;20223;-75
2023/08/29 11:51:06;;;;;;;9.15;8.25;;;23.10;99.90;;;;;;5060511;28;20246;-74
2023/08/29 11:53:34;;;;;;;9.00;8.10;;;23.20;99.90;;;;;;5060212;28;20230;-75
2023/08/29 11:56:02;;;;;;;9.77;8.73;;;23.20;99.90;;;;;;5059975;28;20204;-75
2023/08/29 11:58:35;;;;;;;9.48;8.43;;;23.20;99.90;;;;;;5060133;28;20263;-75
2023/08/29 12:01:07;;;;;;;9.35;7.93;;;23.10;99.90;;;;;;5060029;28;20165;-74
2023/08/29 12:03:38;;;;;;;8.65;7.50;;;23.10;99.90;;;;;;5059273;28;20226;-75
2023/08/29 12:06:10;;;;;;;9.52;7.55;;;23.00;99.90;;;;;;5059435;28;20196;-74
2023/08/29 12:08:41;;;;;;;9.45;7.90;;;23.00;99.90;;;;;;5057110;28;20173;-74
2023/08/29 12:11:15;;;;;;;8.23;6.82;;;22.90;99.90;;;;;;5059885;28;20168;-74
2023/08/29 12:14:00;;;;;;;8.98;7.68;;;22.80;99.90;;;;;;5059479;28;20175;-74
2023/08/29 12:16:26;;;;;;;7.95;7.15;;;22.80;99.90;;;;;;5059587;28;20200;-75
2023/08/29 12:19:06;;;;;;;8.02;7.03;;;22.70;99.90;;;;;;5059706;28;20369;-74
2023/08/29 12:21:33;;;;;;;8.75;6.57;;;22.60;99.90;;;;;;5054256;28;20164;-74
2023/08/29 12:24:14;;;;;;;9.10;6.72;;;22.50;99.90;;;;;;5067765;28;20181;-74
2023/08/29 12:26:39;;;;;;;7.85;6.80;;;22.40;99.90;;;;;;5059382;28;20227;-74
2023/08/29 12:29:05;;;;;;;7.88;6.28;;;22.30;99.90;;;;;;5058893;28;20200;-74
2023/08/29 12:31:31;;;;;;;7.03;6.30;;;22.30;99.90;;;;;;5059498;28;20169;-74
2023/08/29 12:33:57;;;;;;;7.90;7.10;;;22.30;99.90;;;;;;5057498;28;20234;-71
2023/08/29 12:36:22;;;;;;;7.45;6.65;;;22.30;99.90;;;;;;5039356;28;20197;-74
2023/08/29 12:38:48;;;;;;;8.27;7.32;;;22.40;99.90;;;;;;5056676;28;20183;-75
2023/08/29 12:41:17;;;;;;;8.10;7.00;;;22.50;99.90;;;;;;5058798;28;20176;-72
2023/08/29 12:43:42;;;;;;;11.80;8.68;;;22.60;99.90;;;;;;5059239;28;20164;-73